sensor_id;sensor_type;location;lat;lon;timestamp;P1;durP1;ratioP1;P2;durP2;ratioP2
80481;SDS011;69797;43.864;21.410;2024-02-26T00:02:09;8.45;;;4.53;;
80481;SDS011;69797;43.864;21.410;2024-02-26T00:04:36;9.25;;;4.72;;
80481;SDS011;69797;43.864;21.410;2024-02-26T00:07:02;6.97;;;4.38;;
80481;SDS011;69797;43.864;21.410;2024-02-26T00:09:30;9.75;;;4.72;;
80481;SDS011;69797;43.864;21.410;2024-02-26T00:11:56;7.85;;;4.45;;
80481;SDS011;69797;43.864;21.410;2024-02-26T00:14:24;7.05;;;4.00;;
80481;SDS011;69797;43.864;21.410;2024-02-26T00:16:51;7.70;;;4.45;;
80481;SDS011;69797;43.864;21.410;2024-02-26T00:19:17;7.30;;;4.13;;
80481;SDS011;69797;43.864;21.410;2024-02-26T00:21:44;6.57;;;4.18;;
80481;SDS011;69797;43.864;21.410;2024-02-26T00:24:11;6.70;;;4.20;;
80481;SDS011;69797;43.864;21.410;2024-02-26T00:26:38;8.55;;;4.45;;
80481;SDS011;69797;43.864;21.410;2024-02-26T00:29:05;7.38;;;4.50;;
80481;SDS011;69797;43.864;21.410;2024-02-26T00:31:32;8.18;;;4.28;;
80481;SDS011;69797;43.864;21.410;2024-02-26T00:34:00;7.65;;;4.25;;
80481;SDS011;69797;43.864;21.410;2024-02-26T00:36:27;6.73;;;3.87;;
80481;SDS011;69797;43.864;21.410;2024-02-26T00:38:54;7.95;;;4.43;;
80481;SDS011;69797;43.864;21.410;2024-02-26T00:41:20;8.02;;;4.50;;
80481;SDS011;69797;43.864;21.410;2024-02-26T00:43:47;10.63;;;5.18;;
80481;SDS011;69797;43.864;21.410;2024-02-26T00:46:14;8.10;;;4.47;;
80481;SDS011;69797;43.864;21.410;2024-02-26T00:48:41;8.20;;;4.75;;
80481;SDS011;69797;43.864;21.410;2024-02-26T00:51:08;10.65;;;5.70;;
80481;SDS011;69797;43.864;21.410;2024-02-26T00:53:35;12.60;;;5.55;;
80481;SDS011;69797;43.864;21.410;2024-02-26T00:56:03;8.10;;;5.13;;
80481;SDS011;69797;43.864;21.410;2024-02-26T00:58:30;8.80;;;5.65;;
80481;SDS011;69797;43.864;21.410;2024-02-26T01:00:57;10.32;;;5.93;;
80481;SDS011;69797;43.864;21.410;2024-02-26T01:03:23;9.23;;;5.57;;
80481;SDS011;69797;43.864;21.410;2024-02-26T01:05:51;10.68;;;5.95;;
80481;SDS011;69797;43.864;21.410;2024-02-26T01:08:22;9.18;;;5.55;;
80481;SDS011;69797;43.864;21.410;2024-02-26T01:10:49;7.97;;;5.30;;
80481;SDS011;69797;43.864;21.410;2024-02-26T01:13:16;10.00;;;5.65;;
80481;SDS011;69797;43.864;21.410;2024-02-26T01:15:43;10.55;;;5.80;;
80481;SDS011;69797;43.864;21.410;2024-02-26T01:18:10;10.10;;;5.60;;
80481;SDS011;69797;43.864;21.410;2024-02-26T01:20:38;8.75;;;4.78;;
80481;SDS011;69797;43.864;21.410;2024-02-26T01:23:05;6.85;;;4.32;;
80481;SDS011;69797;43.864;21.410;2024-02-26T01:25:32;11.57;;;5.35;;
80481;SDS011;69797;43.864;21.410;2024-02-26T01:27:58;10.98;;;5.28;;
80481;SDS011;69797;43.864;21.410;2024-02-26T01:30:25;8.23;;;5.25;;
80481;SDS011;69797;43.864;21.410;2024-02-26T01:32:52;8.85;;;5.65;;
80481;SDS011;69797;43.864;21.410;2024-02-26T01:35:19;10.45;;;5.30;;
80481;SDS011;69797;43.864;21.410;2024-02-26T01:37:46;8.65;;;5.22;;
80481;SDS011;69797;43.864;21.410;2024-02-26T01:40:13;10.20;;;5.53;;
80481;SDS011;69797;43.864;21.410;2024-02-26T01:42:44;9.18;;;5.72;;
80481;SDS011;69797;43.864;21.410;2024-02-26T01:45:15;10.45;;;5.45;;
80481;SDS011;69797;43.864;21.410;2024-02-26T01:47:49;8.93;;;4.90;;
80481;SDS011;69797;43.864;21.410;2024-02-26T01:50:18;10.50;;;5.60;;
80481;SDS011;69797;43.864;21.410;2024-02-26T01:52:46;11.00;;;5.70;;
80481;SDS011;69797;43.864;21.410;2024-02-26T01:55:13;13.77;;;6.70;;
80481;SDS011;69797;43.864;21.410;2024-02-26T01:57:45;12.07;;;6.80;;
80481;SDS011;69797;43.864;21.410;2024-02-26T02:00:14;10.10;;;5.93;;
80481;SDS011;69797;43.864;21.410;2024-02-26T02:02:41;12.10;;;7.37;;
80481;SDS011;69797;43.864;21.410;2024-02-26T02:05:10;12.40;;;8.10;;
80481;SDS011;69797;43.864;21.410;2024-02-26T02:07:38;15.50;;;8.60;;
80481;SDS011;69797;43.864;21.410;2024-02-26T02:10:07;16.13;;;9.65;;
80481;SDS011;69797;43.864;21.410;2024-02-26T02:12:34;15.35;;;8.75;;
80481;SDS011;69797;43.864;21.410;2024-02-26T02:15:02;15.90;;;8.38;;
80481;SDS011;69797;43.864;21.410;2024-02-26T02:17:30;16.08;;;7.50;;
80481;SDS011;69797;43.864;21.410;2024-02-26T02:19:58;14.65;;;7.80;;
80481;SDS011;69797;43.864;21.410;2024-02-26T02:22:25;17.10;;;8.48;;
80481;SDS011;69797;43.864;21.410;2024-02-26T02:24:51;14.45;;;8.75;;
80481;SDS011;69797;43.864;21.410;2024-02-26T02:27:19;14.55;;;8.80;;
80481;SDS011;69797;43.864;21.410;2024-02-26T02:29:46;14.70;;;8.10;;
80481;SDS011;69797;43.864;21.410;2024-02-26T02:32:14;13.50;;;7.75;;
80481;SDS011;69797;43.864;21.410;2024-02-26T02:34:43;14.55;;;8.80;;
80481;SDS011;69797;43.864;21.410;2024-02-26T02:37:12;16.63;;;8.98;;
80481;SDS011;69797;43.864;21.410;2024-02-26T02:39:38;12.05;;;6.68;;
80481;SDS011;69797;43.864;21.410;2024-02-26T02:42:05;13.15;;;6.95;;
80481;SDS011;69797;43.864;21.410;2024-02-26T02:44:32;16.05;;;9.02;;
80481;SDS011;69797;43.864;21.410;2024-02-26T02:46:59;14.77;;;8.98;;
80481;SDS011;69797;43.864;21.410;2024-02-26T02:49:25;16.17;;;9.68;;
80481;SDS011;69797;43.864;21.410;2024-02-26T02:51:52;10.70;;;6.78;;
80481;SDS011;69797;43.864;21.410;2024-02-26T02:54:24;14.65;;;7.75;;
80481;SDS011;69797;43.864;21.410;2024-02-26T02:56:50;19.15;;;9.35;;
80481;SDS011;69797;43.864;21.410;2024-02-26T02:59:17;18.25;;;9.63;;
80481;SDS011;69797;43.864;21.410;2024-02-26T03:01:44;16.83;;;8.50;;
80481;SDS011;69797;43.864;21.410;2024-02-26T03:04:11;16.30;;;8.80;;
80481;SDS011;69797;43.864;21.410;2024-02-26T03:06:38;15.38;;;8.88;;
80481;SDS011;69797;43.864;21.410;2024-02-26T03:09:05;17.45;;;9.15;;
80481;SDS011;69797;43.864;21.410;2024-02-26T03:11:32;18.95;;;10.05;;
80481;SDS011;69797;43.864;21.410;2024-02-26T03:13:58;17.67;;;9.18;;
80481;SDS011;69797;43.864;21.410;2024-02-26T03:16:25;16.05;;;8.85;;
80481;SDS011;69797;43.864;21.410;2024-02-26T03:18:52;15.82;;;9.73;;
80481;SDS011;69797;43.864;21.410;2024-02-26T03:21:19;15.77;;;9.63;;
80481;SDS011;69797;43.864;21.410;2024-02-26T03:23:46;16.45;;;9.48;;
80481;SDS011;69797;43.864;21.410;2024-02-26T03:26:13;18.23;;;9.40;;
80481;SDS011;69797;43.864;21.410;2024-02-26T03:28:41;17.88;;;9.25;;
80481;SDS011;69797;43.864;21.410;2024-02-26T03:31:07;18.02;;;9.75;;
80481;SDS011;69797;43.864;21.410;2024-02-26T03:33:34;16.42;;;9.23;;
80481;SDS011;69797;43.864;21.410;2024-02-26T03:36:02;16.52;;;8.80;;
80481;SDS011;69797;43.864;21.410;2024-02-26T03:38:29;12.77;;;8.23;;
80481;SDS011;69797;43.864;21.410;2024-02-26T03:40:56;17.20;;;9.10;;
80481;SDS011;69797;43.864;21.410;2024-02-26T03:43:23;16.50;;;8.52;;
80481;SDS011;69797;43.864;21.410;2024-02-26T03:45:50;17.30;;;9.75;;
80481;SDS011;69797;43.864;21.410;2024-02-26T03:48:17;13.85;;;7.93;;
80481;SDS011;69797;43.864;21.410;2024-02-26T03:50:43;16.05;;;9.25;;
80481;SDS011;69797;43.864;21.410;2024-02-26T03:53:10;15.65;;;9.38;;
80481;SDS011;69797;43.864;21.410;2024-02-26T03:55:40;15.52;;;9.07;;
80481;SDS011;69797;43.864;21.410;2024-02-26T03:58:08;15.88;;;8.80;;
80481;SDS011;69797;43.864;21.410;2024-02-26T04:00:36;16.80;;;9.15;;
80481;SDS011;69797;43.864;21.410;2024-02-26T04:03:03;16.02;;;7.95;;
80481;SDS011;69797;43.864;21.410;2024-02-26T04:05:30;19.38;;;9.77;;
80481;SDS011;69797;43.864;21.410;2024-02-26T04:07:57;16.55;;;10.20;;
80481;SDS011;69797;43.864;21.410;2024-02-26T04:10:24;18.35;;;9.57;;
80481;SDS011;69797;43.864;21.410;2024-02-26T04:12:50;16.70;;;9.55;;
80481;SDS011;69797;43.864;21.410;2024-02-26T04:15:17;15.57;;;9.40;;
80481;SDS011;69797;43.864;21.410;2024-02-26T04:17:44;17.00;;;8.63;;
80481;SDS011;69797;43.864;21.410;2024-02-26T04:20:14;20.30;;;8.75;;
80481;SDS011;69797;43.864;21.410;2024-02-26T04:22:43;14.82;;;8.52;;
80481;SDS011;69797;43.864;21.410;2024-02-26T04:25:11;16.88;;;9.20;;
80481;SDS011;69797;43.864;21.410;2024-02-26T04:27:37;17.00;;;9.35;;
80481;SDS011;69797;43.864;21.410;2024-02-26T04:30:05;15.27;;;8.48;;
80481;SDS011;69797;43.864;21.410;2024-02-26T04:32:33;16.50;;;8.90;;
80481;SDS011;69797;43.864;21.410;2024-02-26T04:35:01;17.25;;;8.75;;
80481;SDS011;69797;43.864;21.410;2024-02-26T04:37:29;17.95;;;8.93;;
80481;SDS011;69797;43.864;21.410;2024-02-26T04:39:58;20.20;;;8.25;;
80481;SDS011;69797;43.864;21.410;2024-02-26T04:42:25;14.10;;;8.18;;
80481;SDS011;69797;43.864;21.410;2024-02-26T04:44:54;18.10;;;8.38;;
80481;SDS011;69797;43.864;21.410;2024-02-26T04:47:21;18.98;;;8.80;;
80481;SDS011;69797;43.864;21.410;2024-02-26T04:49:51;15.52;;;8.85;;
80481;SDS011;69797;43.864;21.410;2024-02-26T04:52:19;15.40;;;8.55;;
80481;SDS011;69797;43.864;21.410;2024-02-26T04:54:46;17.05;;;7.93;;
80481;SDS011;69797;43.864;21.410;2024-02-26T04:57:13;13.10;;;6.88;;
80481;SDS011;69797;43.864;21.410;2024-02-26T04:59:40;14.85;;;8.30;;
80481;SDS011;69797;43.864;21.410;2024-02-26T05:02:08;18.73;;;8.05;;
80481;SDS011;69797;43.864;21.410;2024-02-26T05:04:36;19.52;;;9.10;;
80481;SDS011;69797;43.864;21.410;2024-02-26T05:07:03;15.98;;;8.38;;
80481;SDS011;69797;43.864;21.410;2024-02-26T05:09:30;19.48;;;9.63;;
80481;SDS011;69797;43.864;21.410;2024-02-26T05:11:57;17.38;;;8.82;;
80481;SDS011;69797;43.864;21.410;2024-02-26T05:14:24;17.02;;;9.00;;
80481;SDS011;69797;43.864;21.410;2024-02-26T05:16:50;15.88;;;9.55;;
80481;SDS011;69797;43.864;21.410;2024-02-26T05:19:17;18.23;;;9.40;;
80481;SDS011;69797;43.864;21.410;2024-02-26T05:21:44;18.70;;;10.43;;
80481;SDS011;69797;43.864;21.410;2024-02-26T05:24:13;19.55;;;11.13;;
80481;SDS011;69797;43.864;21.410;2024-02-26T05:26:42;22.38;;;11.45;;
80481;SDS011;69797;43.864;21.410;2024-02-26T05:29:09;21.20;;;11.00;;
80481;SDS011;69797;43.864;21.410;2024-02-26T05:31:35;24.38;;;11.45;;
80481;SDS011;69797;43.864;21.410;2024-02-26T05:34:02;19.63;;;9.55;;
80481;SDS011;69797;43.864;21.410;2024-02-26T05:36:29;20.83;;;10.15;;
80481;SDS011;69797;43.864;21.410;2024-02-26T05:39:00;26.15;;;12.90;;
80481;SDS011;69797;43.864;21.410;2024-02-26T05:41:27;23.92;;;13.02;;
80481;SDS011;69797;43.864;21.410;2024-02-26T05:43:54;20.88;;;12.98;;
80481;SDS011;69797;43.864;21.410;2024-02-26T05:46:21;22.85;;;13.73;;
80481;SDS011;69797;43.864;21.410;2024-02-26T05:48:52;24.58;;;13.27;;
80481;SDS011;69797;43.864;21.410;2024-02-26T05:51:20;25.90;;;13.35;;
80481;SDS011;69797;43.864;21.410;2024-02-26T05:53:46;26.58;;;14.40;;
80481;SDS011;69797;43.864;21.410;2024-02-26T05:56:23;28.05;;;15.25;;
80481;SDS011;69797;43.864;21.410;2024-02-26T05:58:50;26.98;;;15.27;;
80481;SDS011;69797;43.864;21.410;2024-02-26T06:01:19;32.15;;;15.85;;
80481;SDS011;69797;43.864;21.410;2024-02-26T06:03:46;32.17;;;16.55;;
80481;SDS011;69797;43.864;21.410;2024-02-26T06:06:13;34.47;;;16.23;;
80481;SDS011;69797;43.864;21.410;2024-02-26T06:08:42;34.20;;;16.77;;
80481;SDS011;69797;43.864;21.410;2024-02-26T06:11:09;32.22;;;16.50;;
80481;SDS011;69797;43.864;21.410;2024-02-26T06:13:36;29.38;;;15.02;;
80481;SDS011;69797;43.864;21.410;2024-02-26T06:16:03;20.77;;;11.18;;
80481;SDS011;69797;43.864;21.410;2024-02-26T06:18:30;21.60;;;12.40;;
80481;SDS011;69797;43.864;21.410;2024-02-26T06:20:57;20.90;;;12.50;;
80481;SDS011;69797;43.864;21.410;2024-02-26T06:23:24;19.75;;;10.77;;
80481;SDS011;69797;43.864;21.410;2024-02-26T06:25:52;18.10;;;10.70;;
80481;SDS011;69797;43.864;21.410;2024-02-26T06:28:18;18.40;;;10.90;;
80481;SDS011;69797;43.864;21.410;2024-02-26T06:30:45;19.60;;;9.75;;
80481;SDS011;69797;43.864;21.410;2024-02-26T06:33:12;17.10;;;9.70;;
80481;SDS011;69797;43.864;21.410;2024-02-26T06:35:40;20.10;;;10.07;;
80481;SDS011;69797;43.864;21.410;2024-02-26T06:38:08;16.58;;;9.27;;
80481;SDS011;69797;43.864;21.410;2024-02-26T06:40:36;15.93;;;9.90;;
80481;SDS011;69797;43.864;21.410;2024-02-26T06:43:03;17.27;;;10.05;;
80481;SDS011;69797;43.864;21.410;2024-02-26T06:45:29;18.80;;;10.90;;
80481;SDS011;69797;43.864;21.410;2024-02-26T06:47:57;18.55;;;10.77;;
80481;SDS011;69797;43.864;21.410;2024-02-26T06:50:24;16.25;;;9.43;;
80481;SDS011;69797;43.864;21.410;2024-02-26T06:52:51;16.02;;;9.77;;
80481;SDS011;69797;43.864;21.410;2024-02-26T06:55:17;14.02;;;9.25;;
80481;SDS011;69797;43.864;21.410;2024-02-26T06:57:44;15.90;;;9.70;;
80481;SDS011;69797;43.864;21.410;2024-02-26T07:00:11;19.10;;;10.13;;
80481;SDS011;69797;43.864;21.410;2024-02-26T07:02:42;16.67;;;9.95;;
80481;SDS011;69797;43.864;21.410;2024-02-26T07:05:09;19.60;;;12.07;;
80481;SDS011;69797;43.864;21.410;2024-02-26T07:07:36;19.20;;;10.60;;
80481;SDS011;69797;43.864;21.410;2024-02-26T07:10:03;16.90;;;10.30;;
80481;SDS011;69797;43.864;21.410;2024-02-26T07:12:32;14.90;;;9.30;;
80481;SDS011;69797;43.864;21.410;2024-02-26T07:14:59;12.98;;;9.60;;
80481;SDS011;69797;43.864;21.410;2024-02-26T07:17:27;12.90;;;8.55;;
80481;SDS011;69797;43.864;21.410;2024-02-26T07:19:54;13.55;;;8.88;;
80481;SDS011;69797;43.864;21.410;2024-02-26T07:22:21;12.47;;;7.97;;
80481;SDS011;69797;43.864;21.410;2024-02-26T07:24:47;15.10;;;9.45;;
80481;SDS011;69797;43.864;21.410;2024-02-26T07:27:14;13.20;;;9.02;;
80481;SDS011;69797;43.864;21.410;2024-02-26T07:29:44;13.25;;;9.23;;
80481;SDS011;69797;43.864;21.410;2024-02-26T07:32:11;12.00;;;7.82;;
80481;SDS011;69797;43.864;21.410;2024-02-26T07:34:38;11.83;;;8.27;;
80481;SDS011;69797;43.864;21.410;2024-02-26T07:37:08;13.60;;;9.48;;
80481;SDS011;69797;43.864;21.410;2024-02-26T07:39:35;11.95;;;7.40;;
80481;SDS011;69797;43.864;21.410;2024-02-26T07:42:03;12.23;;;8.13;;
80481;SDS011;69797;43.864;21.410;2024-02-26T07:44:30;10.52;;;8.80;;
80481;SDS011;69797;43.864;21.410;2024-02-26T07:46:57;15.13;;;9.33;;
80481;SDS011;69797;43.864;21.410;2024-02-26T07:49:24;12.00;;;8.20;;
80481;SDS011;69797;43.864;21.410;2024-02-26T07:51:51;9.80;;;7.50;;
80481;SDS011;69797;43.864;21.410;2024-02-26T07:54:18;10.25;;;8.65;;
80481;SDS011;69797;43.864;21.410;2024-02-26T07:56:45;11.43;;;8.00;;
80481;SDS011;69797;43.864;21.410;2024-02-26T07:59:12;10.60;;;8.30;;
80481;SDS011;69797;43.864;21.410;2024-02-26T08:01:40;10.23;;;7.57;;
80481;SDS011;69797;43.864;21.410;2024-02-26T08:04:08;10.93;;;8.15;;
80481;SDS011;69797;43.864;21.410;2024-02-26T08:06:35;13.18;;;9.35;;
80481;SDS011;69797;43.864;21.410;2024-02-26T08:09:04;14.15;;;9.40;;
80481;SDS011;69797;43.864;21.410;2024-02-26T08:11:31;12.00;;;9.87;;
80481;SDS011;69797;43.864;21.410;2024-02-26T08:13:58;14.18;;;9.90;;
80481;SDS011;69797;43.864;21.410;2024-02-26T08:16:25;12.32;;;9.80;;
80481;SDS011;69797;43.864;21.410;2024-02-26T08:18:53;13.45;;;9.52;;
80481;SDS011;69797;43.864;21.410;2024-02-26T08:21:20;15.55;;;9.90;;
80481;SDS011;69797;43.864;21.410;2024-02-26T08:23:47;9.53;;;6.37;;
80481;SDS011;69797;43.864;21.410;2024-02-26T08:26:14;8.82;;;6.63;;
80481;SDS011;69797;43.864;21.410;2024-02-26T08:28:40;9.38;;;6.22;;
80481;SDS011;69797;43.864;21.410;2024-02-26T08:31:07;7.45;;;6.15;;
80481;SDS011;69797;43.864;21.410;2024-02-26T08:33:34;8.75;;;6.13;;
80481;SDS011;69797;43.864;21.410;2024-02-26T08:36:05;9.73;;;6.03;;
80481;SDS011;69797;43.864;21.410;2024-02-26T08:38:32;8.60;;;6.07;;
80481;SDS011;69797;43.864;21.410;2024-02-26T08:41:01;8.23;;;6.10;;
80481;SDS011;69797;43.864;21.410;2024-02-26T08:43:29;10.90;;;5.80;;
80481;SDS011;69797;43.864;21.410;2024-02-26T08:45:56;10.23;;;6.75;;
80481;SDS011;69797;43.864;21.410;2024-02-26T08:48:23;9.30;;;6.13;;
80481;SDS011;69797;43.864;21.410;2024-02-26T08:50:50;10.20;;;6.80;;
80481;SDS011;69797;43.864;21.410;2024-02-26T08:53:17;9.70;;;5.90;;
80481;SDS011;69797;43.864;21.410;2024-02-26T08:55:56;9.43;;;6.25;;
80481;SDS011;69797;43.864;21.410;2024-02-26T08:58:23;10.32;;;6.40;;
80481;SDS011;69797;43.864;21.410;2024-02-26T09:00:50;6.47;;;5.30;;
80481;SDS011;69797;43.864;21.410;2024-02-26T09:03:17;8.50;;;5.78;;
80481;SDS011;69797;43.864;21.410;2024-02-26T09:05:44;10.18;;;6.07;;
80481;SDS011;69797;43.864;21.410;2024-02-26T09:08:11;10.23;;;7.25;;
80481;SDS011;69797;43.864;21.410;2024-02-26T09:10:38;12.30;;;9.15;;
80481;SDS011;69797;43.864;21.410;2024-02-26T09:13:05;13.87;;;10.27;;
80481;SDS011;69797;43.864;21.410;2024-02-26T09:15:32;14.45;;;9.50;;
80481;SDS011;69797;43.864;21.410;2024-02-26T09:17:59;15.38;;;9.23;;
80481;SDS011;69797;43.864;21.410;2024-02-26T09:20:26;14.93;;;9.00;;
80481;SDS011;69797;43.864;21.410;2024-02-26T09:22:53;14.45;;;8.35;;
80481;SDS011;69797;43.864;21.410;2024-02-26T09:25:20;15.40;;;8.33;;
80481;SDS011;69797;43.864;21.410;2024-02-26T09:27:47;15.48;;;9.00;;
80481;SDS011;69797;43.864;21.410;2024-02-26T09:30:14;13.80;;;7.88;;
80481;SDS011;69797;43.864;21.410;2024-02-26T09:32:41;14.98;;;9.13;;
80481;SDS011;69797;43.864;21.410;2024-02-26T09:35:08;13.75;;;8.23;;
80481;SDS011;69797;43.864;21.410;2024-02-26T09:37:35;14.20;;;8.80;;
80481;SDS011;69797;43.864;21.410;2024-02-26T09:40:03;15.43;;;7.85;;
80481;SDS011;69797;43.864;21.410;2024-02-26T09:42:32;13.48;;;7.65;;
80481;SDS011;69797;43.864;21.410;2024-02-26T09:45:02;15.35;;;9.07;;
80481;SDS011;69797;43.864;21.410;2024-02-26T09:47:35;13.35;;;7.80;;
80481;SDS011;69797;43.864;21.410;2024-02-26T09:50:03;12.30;;;7.60;;
80481;SDS011;69797;43.864;21.410;2024-02-26T09:52:34;14.18;;;7.30;;
80481;SDS011;69797;43.864;21.410;2024-02-26T09:55:04;10.23;;;6.72;;
80481;SDS011;69797;43.864;21.410;2024-02-26T09:57:31;15.02;;;6.95;;
80481;SDS011;69797;43.864;21.410;2024-02-26T09:59:58;13.80;;;8.15;;
80481;SDS011;69797;43.864;21.410;2024-02-26T10:02:30;12.93;;;7.33;;
80481;SDS011;69797;43.864;21.410;2024-02-26T10:05:01;13.23;;;7.55;;
80481;SDS011;69797;43.864;21.410;2024-02-26T10:07:33;12.88;;;7.50;;
80481;SDS011;69797;43.864;21.410;2024-02-26T10:10:03;12.40;;;6.40;;
80481;SDS011;69797;43.864;21.410;2024-02-26T10:12:30;15.00;;;7.65;;
80481;SDS011;69797;43.864;21.410;2024-02-26T10:14:58;13.13;;;6.70;;
80481;SDS011;69797;43.864;21.410;2024-02-26T10:17:24;14.23;;;7.47;;
80481;SDS011;69797;43.864;21.410;2024-02-26T10:19:52;12.13;;;6.70;;
80481;SDS011;69797;43.864;21.410;2024-02-26T10:22:23;15.52;;;7.90;;
80481;SDS011;69797;43.864;21.410;2024-02-26T10:24:50;14.93;;;7.82;;
80481;SDS011;69797;43.864;21.410;2024-02-26T10:27:17;12.87;;;7.23;;
80481;SDS011;69797;43.864;21.410;2024-02-26T10:29:45;12.70;;;7.03;;
80481;SDS011;69797;43.864;21.410;2024-02-26T10:32:13;13.05;;;7.43;;
80481;SDS011;69797;43.864;21.410;2024-02-26T10:34:40;10.82;;;6.53;;
80481;SDS011;69797;43.864;21.410;2024-02-26T10:37:09;11.93;;;6.78;;
80481;SDS011;69797;43.864;21.410;2024-02-26T10:39:36;11.70;;;7.40;;
80481;SDS011;69797;43.864;21.410;2024-02-26T10:42:04;13.50;;;7.25;;
80481;SDS011;69797;43.864;21.410;2024-02-26T10:44:36;14.65;;;7.10;;
80481;SDS011;69797;43.864;21.410;2024-02-26T10:47:03;12.52;;;6.80;;
80481;SDS011;69797;43.864;21.410;2024-02-26T10:49:30;11.98;;;5.60;;
80481;SDS011;69797;43.864;21.410;2024-02-26T10:51:57;9.57;;;3.43;;
80481;SDS011;69797;43.864;21.410;2024-02-26T10:54:25;7.13;;;4.10;;
80481;SDS011;69797;43.864;21.410;2024-02-26T10:56:56;10.23;;;5.55;;
80481;SDS011;69797;43.864;21.410;2024-02-26T10:59:26;12.95;;;7.13;;
80481;SDS011;69797;43.864;21.410;2024-02-26T11:01:53;8.43;;;3.90;;
80481;SDS011;69797;43.864;21.410;2024-02-26T11:04:22;17.13;;;7.67;;
80481;SDS011;69797;43.864;21.410;2024-02-26T11:06:51;12.20;;;6.38;;
80481;SDS011;69797;43.864;21.410;2024-02-26T11:09:22;11.00;;;6.65;;
80481;SDS011;69797;43.864;21.410;2024-02-26T11:11:50;12.48;;;7.30;;
80481;SDS011;69797;43.864;21.410;2024-02-26T11:14:21;15.23;;;7.78;;
80481;SDS011;69797;43.864;21.410;2024-02-26T11:16:48;11.90;;;6.80;;
80481;SDS011;69797;43.864;21.410;2024-02-26T11:19:16;13.10;;;7.00;;
80481;SDS011;69797;43.864;21.410;2024-02-26T11:21:44;13.32;;;8.25;;
80481;SDS011;69797;43.864;21.410;2024-02-26T11:24:13;14.65;;;7.82;;
80481;SDS011;69797;43.864;21.410;2024-02-26T11:26:43;13.23;;;7.35;;
80481;SDS011;69797;43.864;21.410;2024-02-26T11:29:16;13.70;;;8.53;;
80481;SDS011;69797;43.864;21.410;2024-02-26T11:31:47;11.05;;;6.72;;
80481;SDS011;69797;43.864;21.410;2024-02-26T11:34:15;11.45;;;7.28;;
80481;SDS011;69797;43.864;21.410;2024-02-26T11:36:43;9.05;;;6.03;;
80481;SDS011;69797;43.864;21.410;2024-02-26T11:39:12;14.63;;;7.75;;
80481;SDS011;69797;43.864;21.410;2024-02-26T11:41:41;11.60;;;7.03;;
80481;SDS011;69797;43.864;21.410;2024-02-26T11:44:08;14.77;;;7.75;;
80481;SDS011;69797;43.864;21.410;2024-02-26T11:46:39;12.50;;;6.97;;
80481;SDS011;69797;43.864;21.410;2024-02-26T11:51:56;12.13;;;7.95;;
80481;SDS011;69797;43.864;21.410;2024-02-26T11:54:45;16.00;;;7.97;;
80481;SDS011;69797;43.864;21.410;2024-02-26T11:57:24;16.52;;;8.15;;
80481;SDS011;69797;43.864;21.410;2024-02-26T12:00:12;12.75;;;7.57;;
80481;SDS011;69797;43.864;21.410;2024-02-26T12:05:15;12.98;;;7.35;;
80481;SDS011;69797;43.864;21.410;2024-02-26T12:07:47;11.50;;;8.20;;
80481;SDS011;69797;43.864;21.410;2024-02-26T12:10:26;14.25;;;6.75;;
80481;SDS011;69797;43.864;21.410;2024-02-26T12:12:59;14.35;;;8.05;;
80481;SDS011;69797;43.864;21.410;2024-02-26T12:15:30;15.90;;;8.10;;
80481;SDS011;69797;43.864;21.410;2024-02-26T12:18:03;15.27;;;7.47;;
80481;SDS011;69797;43.864;21.410;2024-02-26T12:20:31;12.33;;;7.30;;
80481;SDS011;69797;43.864;21.410;2024-02-26T12:22:58;12.32;;;7.28;;
80481;SDS011;69797;43.864;21.410;2024-02-26T12:25:26;11.50;;;6.88;;
80481;SDS011;69797;43.864;21.410;2024-02-26T12:27:55;8.75;;;5.70;;
80481;SDS011;69797;43.864;21.410;2024-02-26T12:30:22;15.80;;;7.85;;
80481;SDS011;69797;43.864;21.410;2024-02-26T12:32:50;14.03;;;7.87;;
80481;SDS011;69797;43.864;21.410;2024-02-26T12:35:18;15.07;;;8.10;;
80481;SDS011;69797;43.864;21.410;2024-02-26T12:37:46;12.30;;;6.72;;
80481;SDS011;69797;43.864;21.410;2024-02-26T12:40:13;10.63;;;6.40;;
80481;SDS011;69797;43.864;21.410;2024-02-26T12:42:40;11.48;;;7.35;;
80481;SDS011;69797;43.864;21.410;2024-02-26T12:45:09;14.70;;;7.47;;
80481;SDS011;69797;43.864;21.410;2024-02-26T12:47:38;10.93;;;6.68;;
80481;SDS011;69797;43.864;21.410;2024-02-26T12:50:05;11.68;;;6.40;;
80481;SDS011;69797;43.864;21.410;2024-02-26T12:52:36;12.48;;;8.00;;
80481;SDS011;69797;43.864;21.410;2024-02-26T12:55:06;11.55;;;7.60;;
80481;SDS011;69797;43.864;21.410;2024-02-26T12:57:38;9.03;;;5.83;;
80481;SDS011;69797;43.864;21.410;2024-02-26T13:00:05;11.55;;;6.78;;
80481;SDS011;69797;43.864;21.410;2024-02-26T13:02:36;10.60;;;5.95;;
80481;SDS011;69797;43.864;21.410;2024-02-26T13:05:04;9.63;;;6.00;;
80481;SDS011;69797;43.864;21.410;2024-02-26T13:07:34;14.00;;;7.70;;
80481;SDS011;69797;43.864;21.410;2024-02-26T13:10:07;11.17;;;6.43;;
80481;SDS011;69797;43.864;21.410;2024-02-26T13:12:34;10.80;;;6.50;;
80481;SDS011;69797;43.864;21.410;2024-02-26T13:15:01;10.63;;;5.97;;
80481;SDS011;69797;43.864;21.410;2024-02-26T13:17:32;10.27;;;6.00;;
80481;SDS011;69797;43.864;21.410;2024-02-26T13:20:00;11.70;;;6.25;;
80481;SDS011;69797;43.864;21.410;2024-02-26T13:22:27;14.43;;;7.87;;
80481;SDS011;69797;43.864;21.410;2024-02-26T13:24:56;12.48;;;7.32;;
80481;SDS011;69797;43.864;21.410;2024-02-26T13:27:23;11.57;;;7.88;;
80481;SDS011;69797;43.864;21.410;2024-02-26T13:30:10;16.73;;;8.85;;
80481;SDS011;69797;43.864;21.410;2024-02-26T13:32:39;13.15;;;8.15;;
80481;SDS011;69797;43.864;21.410;2024-02-26T13:35:11;11.77;;;7.00;;
80481;SDS011;69797;43.864;21.410;2024-02-26T13:37:39;12.30;;;7.97;;
80481;SDS011;69797;43.864;21.410;2024-02-26T13:40:07;15.73;;;8.38;;
80481;SDS011;69797;43.864;21.410;2024-02-26T13:42:35;11.88;;;7.32;;
80481;SDS011;69797;43.864;21.410;2024-02-26T13:45:03;11.15;;;7.65;;
80481;SDS011;69797;43.864;21.410;2024-02-26T13:47:34;12.60;;;7.83;;
80481;SDS011;69797;43.864;21.410;2024-02-26T13:50:02;10.13;;;7.57;;
80481;SDS011;69797;43.864;21.410;2024-02-26T13:52:29;9.68;;;6.50;;
80481;SDS011;69797;43.864;21.410;2024-02-26T13:54:59;11.00;;;7.05;;
80481;SDS011;69797;43.864;21.410;2024-02-26T13:57:26;11.70;;;7.82;;
80481;SDS011;69797;43.864;21.410;2024-02-26T13:59:53;9.93;;;6.97;;
80481;SDS011;69797;43.864;21.410;2024-02-26T14:02:21;10.68;;;6.75;;
80481;SDS011;69797;43.864;21.410;2024-02-26T14:04:47;10.25;;;6.65;;
80481;SDS011;69797;43.864;21.410;2024-02-26T14:07:15;12.60;;;7.18;;
80481;SDS011;69797;43.864;21.410;2024-02-26T14:09:43;13.52;;;7.63;;
80481;SDS011;69797;43.864;21.410;2024-02-26T14:12:15;11.83;;;7.33;;
80481;SDS011;69797;43.864;21.410;2024-02-26T14:14:47;12.80;;;6.97;;
80481;SDS011;69797;43.864;21.410;2024-02-26T14:17:15;10.63;;;6.82;;
80481;SDS011;69797;43.864;21.410;2024-02-26T14:19:42;11.98;;;6.95;;
80481;SDS011;69797;43.864;21.410;2024-02-26T14:22:14;11.15;;;6.78;;
80481;SDS011;69797;43.864;21.410;2024-02-26T14:24:43;11.70;;;7.43;;
80481;SDS011;69797;43.864;21.410;2024-02-26T14:27:11;10.00;;;6.65;;
80481;SDS011;69797;43.864;21.410;2024-02-26T14:29:43;16.83;;;6.90;;
80481;SDS011;69797;43.864;21.410;2024-02-26T14:32:10;13.50;;;8.23;;